Terminal Aerodrome Forecast
Issued by NWS

Home | Current Version | Previous Version | Text Only | Print | Product List | Glossary On
Versions: 1 2 3 4 5 6 7 8 9 10 11 12
000
FTUS45 KABQ 010540
TAFTCC
TAF
KTCC 010540Z 0106/0206 20009G16KT P6SM FEW200
     FM010800 20010KT P6SM SCT200
     FM011600 20012G19KT P6SM FEW100 SCT200
     FM020100 19011KT P6SM VCSH SCT090 BKN150=

USA.gov is the U.S. government's official web portal to all federal, state and local government web resources and services.